createdAt,value
2019-03-19T00:00:46.332Z,16.10
2019-03-19T00:03:16.985Z,16.55
2019-03-19T00:05:46.621Z,18.17
2019-03-19T00:08:17.379Z,18.17
2019-03-19T00:10:47.092Z,18.57
2019-03-19T00:13:16.934Z,20.40
2019-03-19T00:15:46.661Z,21.82
2019-03-19T00:18:16.484Z,21.70
2019-03-19T00:20:46.220Z,25.57
2019-03-19T00:23:15.965Z,21.97
2019-03-19T00:25:45.580Z,22.52
2019-03-19T00:28:15.413Z,22.48
2019-03-19T00:30:46.690Z,24.67
2019-03-19T00:33:16.508Z,24.72
2019-03-19T00:35:46.131Z,25.12
2019-03-19T00:38:15.865Z,26.62
2019-03-19T00:40:45.502Z,27.80
2019-03-19T00:43:16.357Z,26.70
2019-03-19T00:45:46.087Z,27.42
2019-03-19T00:48:15.704Z,27.50
2019-03-19T00:50:45.438Z,27.43
2019-03-19T00:53:15.274Z,28.17
2019-03-19T00:55:45.011Z,28.80
2019-03-19T00:58:14.828Z,29.07
2019-03-19T01:00:44.567Z,27.22
2019-03-19T01:03:14.295Z,28.73
2019-03-19T01:05:44.031Z,29.92
2019-03-19T01:08:13.745Z,29.20
2019-03-19T01:10:43.387Z,29.37
2019-03-19T01:13:12.959Z,28.23
2019-03-19T01:15:42.632Z,29.02
2019-03-19T01:18:12.471Z,29.95
2019-03-19T01:20:42.410Z,29.12
2019-03-19T01:23:12.032Z,30.08
2019-03-19T01:25:54.822Z,29.67
2019-03-19T01:28:13.021Z,29.12
2019-03-19T01:30:42.757Z,30.75
2019-03-19T01:33:12.394Z,28.73
2019-03-19T01:35:42.323Z,28.83
2019-03-19T01:38:11.882Z,30.55
2019-03-19T01:40:41.536Z,29.37
2019-03-19T01:43:11.303Z,30.55
2019-03-19T01:45:41.032Z,30.82
2019-03-19T01:48:10.769Z,31.17
2019-03-19T01:50:40.487Z,38.50
2019-03-19T01:53:10.223Z,34.23
2019-03-19T01:55:39.963Z,35.78
2019-03-19T01:58:09.881Z,34.53
2019-03-19T02:03:23.577Z,36.75
2019-03-19T02:05:53.304Z,38.05
2019-03-19T02:08:23.020Z,41.28
2019-03-19T02:10:52.762Z,40.08
2019-03-19T02:13:22.489Z,38.92
2019-03-19T02:15:52.215Z,39.45
2019-03-19T02:18:22.155Z,38.85
2019-03-19T02:20:51.893Z,38.75
2019-03-19T02:23:21.619Z,35.33
2019-03-19T02:25:52.288Z,37.73
2019-03-19T02:28:22.097Z,35.10
2019-03-19T02:30:51.832Z,35.63
2019-03-19T02:33:21.570Z,36.80
2019-03-19T02:35:51.181Z,41.63
2019-03-19T02:38:20.803Z,43.17
2019-03-19T02:40:50.641Z,48.70
2019-03-19T02:43:22.781Z,39.08
2019-03-19T02:45:52.462Z,36.50
2019-03-19T02:48:23.419Z,35.48
2019-03-19T02:50:53.251Z,37.50
2019-03-19T02:53:22.979Z,37.98
2019-03-19T02:55:52.723Z,38.45
2019-03-19T02:58:22.640Z,42.65
2019-03-19T03:00:52.377Z,36.48
2019-03-19T03:03:22.106Z,33.40
2019-03-19T03:05:51.875Z,34.88
2019-03-19T03:08:21.544Z,34.92
2019-03-19T03:10:51.298Z,36.15
2019-03-19T03:13:21.124Z,33.90
2019-03-19T03:15:50.866Z,37.33
2019-03-19T03:18:20.591Z,39.18
2019-03-19T03:20:50.313Z,41.40
2019-03-19T03:23:19.967Z,44.08
2019-03-19T03:25:49.885Z,42.33
2019-03-19T03:28:19.644Z,42.00
2019-03-19T03:30:49.335Z,45.45
2019-03-19T03:33:19.094Z,44.83
2019-03-19T03:35:48.797Z,39.63
2019-03-19T03:38:18.534Z,40.50
2019-03-19T03:40:48.364Z,39.65
2019-03-19T03:43:17.922Z,39.05
2019-03-19T03:45:47.517Z,40.80
2019-03-19T03:48:17.138Z,42.33
2019-03-19T03:50:46.883Z,44.45
2019-03-19T03:53:16.619Z,63.05
2019-03-19T03:55:46.454Z,70.67
2019-03-19T03:58:16.173Z,71.28
2019-03-19T04:00:47.638Z,82.65
2019-03-19T04:03:17.381Z,75.30
2019-03-19T04:05:46.900Z,73.30
2019-03-19T04:08:18.151Z,67.27
2019-03-19T04:10:47.884Z,66.28
2019-03-19T04:13:17.538Z,68.12
2019-03-19T04:15:47.345Z,70.08
2019-03-19T04:18:18.607Z,91.95
2019-03-19T04:20:48.337Z,87.15
2019-03-19T04:23:18.076Z,78.45
2019-03-19T04:25:47.806Z,52.93
2019-03-19T04:28:17.643Z,52.67
2019-03-19T04:30:47.380Z,49.25
2019-03-19T04:33:17.106Z,46.75
2019-03-19T04:35:47.029Z,44.77
2019-03-19T04:38:16.661Z,51.00
2019-03-19T04:40:49.596Z,57.27
2019-03-19T04:43:19.511Z,58.42
2019-03-19T04:45:49.441Z,64.22
2019-03-19T04:48:19.060Z,53.63
2019-03-19T04:50:48.915Z,45.67
2019-03-19T04:53:18.942Z,46.25
2019-03-19T04:55:48.710Z,46.40
2019-03-19T04:58:18.491Z,45.40
2019-03-19T05:00:48.110Z,48.52
2019-03-19T05:05:47.772Z,47.20
2019-03-19T05:08:17.404Z,50.73
2019-03-19T05:10:47.159Z,61.40
2019-03-19T05:13:16.759Z,51.80
2019-03-19T05:15:46.725Z,50.38
2019-03-19T05:18:16.425Z,46.35
2019-03-19T05:20:46.154Z,41.35
2019-03-19T05:23:15.894Z,40.00
2019-03-19T05:25:45.617Z,39.88
2019-03-19T05:28:15.453Z,36.83
2019-03-19T05:30:45.496Z,39.50
2019-03-19T05:33:15.114Z,37.00
2019-03-19T05:35:44.846Z,36.40
2019-03-19T05:38:14.479Z,37.83
2019-03-19T05:40:44.109Z,36.77
2019-03-19T05:43:13.845Z,35.65
2019-03-19T05:45:43.566Z,34.50
2019-03-19T05:48:13.094Z,35.70
2019-03-19T05:50:42.958Z,33.33
2019-03-19T05:53:12.765Z,33.42
2019-03-19T05:55:42.484Z,43.55
2019-03-19T05:58:12.220Z,31.33
2019-03-19T06:00:41.957Z,28.92
2019-03-19T06:03:11.807Z,31.02
2019-03-19T06:05:41.823Z,34.27
2019-03-19T06:08:11.753Z,28.73
2019-03-19T06:10:41.501Z,26.73
2019-03-19T06:13:11.518Z,27.07
2019-03-19T06:15:41.284Z,26.02
2019-03-19T06:18:11.191Z,24.25
2019-03-19T06:20:41.021Z,27.95
2019-03-19T06:23:10.962Z,28.40
2019-03-19T06:25:40.785Z,23.55
2019-03-19T06:28:10.408Z,21.27
2019-03-19T06:30:40.772Z,20.77
2019-03-19T06:33:10.602Z,21.42
2019-03-19T06:35:41.851Z,20.95
2019-03-19T06:38:11.776Z,21.02
2019-03-19T06:40:41.519Z,19.65
2019-03-19T06:43:11.156Z,19.45
2019-03-19T06:45:41.075Z,20.77
2019-03-19T06:48:10.804Z,18.98
2019-03-19T06:50:45.039Z,18.20
2019-03-19T06:53:12.187Z,17.40
2019-03-19T06:55:43.363Z,17.73
2019-03-19T06:58:13.117Z,18.05
2019-03-19T07:00:42.837Z,17.52
2019-03-19T07:03:12.562Z,17.03
2019-03-19T07:05:42.498Z,15.00
2019-03-19T07:08:12.125Z,16.07
2019-03-19T07:10:41.850Z,16.27
2019-03-19T07:13:11.708Z,16.23
2019-03-19T07:15:41.523Z,16.15
2019-03-19T07:18:11.261Z,14.38
2019-03-19T07:20:41.096Z,15.50
2019-03-19T07:23:10.718Z,14.55
2019-03-19T07:25:40.441Z,13.93
2019-03-19T07:28:21.416Z,14.18
2019-03-19T07:30:41.950Z,13.65
2019-03-19T07:33:11.804Z,12.18
2019-03-19T07:35:41.628Z,12.58
2019-03-19T07:38:11.458Z,12.63
2019-03-19T07:40:41.388Z,11.57
2019-03-19T07:43:12.340Z,13.30
2019-03-19T07:45:42.030Z,12.67
2019-03-19T07:48:11.821Z,12.07
2019-03-19T07:50:41.524Z,11.90
2019-03-19T07:53:11.258Z,13.72
2019-03-19T07:55:40.989Z,13.60
2019-03-19T07:58:10.611Z,12.90
2019-03-19T08:00:40.247Z,13.35
2019-03-19T08:03:16.001Z,12.88
2019-03-19T08:05:41.437Z,12.15
2019-03-19T08:08:11.987Z,13.68
2019-03-19T08:13:10.642Z,11.10
2019-03-19T08:15:40.227Z,12.03
2019-03-19T08:18:10.049Z,11.53
2019-03-19T08:20:39.928Z,12.33
2019-03-19T08:23:09.764Z,12.50
2019-03-19T08:25:39.387Z,11.93
2019-03-19T08:28:09.224Z,11.75
2019-03-19T08:30:38.956Z,11.30
2019-03-19T08:33:08.576Z,11.00
2019-03-19T08:35:38.520Z,11.35
2019-03-19T08:38:08.242Z,11.20
2019-03-19T08:40:38.130Z,11.08
2019-03-19T08:43:08.216Z,11.05
2019-03-19T08:45:37.942Z,9.33
2019-03-19T08:48:07.786Z,8.40
2019-03-19T08:50:37.601Z,9.25
2019-03-19T08:53:07.336Z,8.28
2019-03-19T08:55:37.066Z,8.63
2019-03-19T08:58:06.902Z,8.48
2019-03-19T09:00:36.744Z,7.55
2019-03-19T09:03:06.356Z,8.68
2019-03-19T09:05:36.084Z,8.53
2019-03-19T09:08:05.826Z,8.45
2019-03-19T09:10:35.452Z,8.25
2019-03-19T09:13:05.188Z,8.07
2019-03-19T09:15:34.904Z,7.80
2019-03-19T09:18:04.682Z,8.28
2019-03-19T09:20:34.465Z,7.35
2019-03-19T09:23:04.203Z,7.08
2019-03-19T09:25:33.854Z,9.28
2019-03-19T09:28:03.762Z,7.35
2019-03-19T09:30:33.488Z,6.80
2019-03-19T09:33:03.211Z,5.92
2019-03-19T09:35:34.717Z,6.08
2019-03-19T09:38:04.447Z,6.78
2019-03-19T09:40:34.087Z,7.20
2019-03-19T09:43:03.880Z,5.85
2019-03-19T09:45:33.614Z,6.45
2019-03-19T09:48:03.350Z,6.10
2019-03-19T09:50:33.109Z,5.80
2019-03-19T09:53:03.025Z,5.62
2019-03-19T09:55:32.942Z,6.37
2019-03-19T09:58:02.564Z,7.53
2019-03-19T10:00:32.403Z,6.25
2019-03-19T10:03:02.137Z,5.85
2019-03-19T10:05:31.864Z,5.72
2019-03-19T10:08:01.594Z,6.10
2019-03-19T10:10:33.002Z,5.72
2019-03-19T10:13:04.532Z,5.83
2019-03-19T10:15:35.942Z,5.83
2019-03-19T10:18:05.630Z,6.50
2019-03-19T10:20:35.564Z,5.30
2019-03-19T10:23:05.705Z,6.97
2019-03-19T10:25:37.975Z,6.37
2019-03-19T10:28:07.013Z,6.67
2019-03-19T10:30:36.726Z,5.50
2019-03-19T10:33:06.460Z,6.30
2019-03-19T10:35:36.119Z,7.00
2019-03-19T10:38:06.128Z,5.20
2019-03-19T10:40:35.968Z,4.75
2019-03-19T10:43:05.906Z,6.28
2019-03-19T10:45:35.629Z,4.45
2019-03-19T10:48:05.352Z,6.35
2019-03-19T10:50:35.061Z,5.55
2019-03-19T10:53:04.815Z,4.60
2019-03-19T10:55:34.551Z,4.60
2019-03-19T10:58:10.834Z,5.45
2019-03-19T11:00:35.655Z,5.90
2019-03-19T11:03:05.690Z,5.53
2019-03-19T11:05:35.542Z,4.95
2019-03-19T11:08:05.567Z,5.33
2019-03-19T11:10:35.396Z,5.12
2019-03-19T11:13:06.251Z,4.40
2019-03-19T11:15:35.863Z,6.53
2019-03-19T11:18:07.340Z,5.28
2019-03-19T11:20:37.076Z,4.40
2019-03-19T11:23:06.899Z,5.30
2019-03-19T11:25:36.762Z,4.72
2019-03-19T11:28:06.461Z,8.58
2019-03-19T11:30:36.140Z,6.10
2019-03-19T11:33:05.929Z,5.60
2019-03-19T11:35:35.666Z,7.62
2019-03-19T11:38:07.115Z,6.47
2019-03-19T11:40:36.852Z,5.83
2019-03-19T11:43:06.691Z,6.20
2019-03-19T11:45:36.515Z,5.37
2019-03-19T11:48:06.286Z,5.85
2019-03-19T11:50:37.398Z,5.65
2019-03-19T11:53:07.037Z,5.55
2019-03-19T11:55:36.667Z,5.53
2019-03-19T11:58:06.390Z,5.92
2019-03-19T12:00:40.629Z,5.83
2019-03-19T12:03:16.081Z,6.22
2019-03-19T12:05:43.164Z,5.37
2019-03-19T12:08:13.003Z,5.75
2019-03-19T12:10:42.621Z,5.87
2019-03-19T12:13:12.351Z,6.28
2019-03-19T12:15:42.100Z,7.08
2019-03-19T12:18:12.010Z,5.67
2019-03-19T12:20:41.753Z,7.30
2019-03-19T12:23:11.463Z,6.95
2019-03-19T12:25:41.405Z,7.33
2019-03-19T12:28:11.234Z,7.22
2019-03-19T12:30:41.890Z,10.20
2019-03-19T12:33:11.727Z,6.75
2019-03-19T12:35:41.763Z,9.68
2019-03-19T12:38:11.628Z,8.00
2019-03-19T12:40:41.420Z,8.38
2019-03-19T12:43:11.358Z,6.17
2019-03-19T12:45:41.297Z,5.87
2019-03-19T12:48:11.143Z,7.35
2019-03-19T12:50:40.857Z,8.20
2019-03-19T12:53:10.586Z,6.58
2019-03-19T12:55:40.123Z,5.80
2019-03-19T12:58:10.048Z,5.87
2019-03-19T13:00:39.785Z,5.67
2019-03-19T13:03:09.618Z,6.37
2019-03-19T13:05:39.641Z,6.03
2019-03-19T13:08:09.390Z,6.50
2019-03-19T13:10:39.439Z,7.92
2019-03-19T13:13:09.145Z,6.22
2019-03-19T13:15:38.871Z,6.03
2019-03-19T13:18:08.718Z,5.80
2019-03-19T13:20:38.435Z,6.92
2019-03-19T13:23:08.160Z,7.37
2019-03-19T13:25:37.897Z,7.37
2019-03-19T13:28:07.723Z,5.90
2019-03-19T13:30:45.169Z,5.80
2019-03-19T13:33:08.822Z,8.85
2019-03-19T13:35:38.557Z,6.72
2019-03-19T13:38:08.145Z,6.55
2019-03-19T13:40:38.015Z,7.92
2019-03-19T13:43:07.751Z,7.42
2019-03-19T13:45:37.475Z,6.65
2019-03-19T13:48:07.313Z,8.28
2019-03-19T13:50:37.039Z,7.37
2019-03-19T13:53:06.776Z,7.87
2019-03-19T13:55:36.499Z,9.58
2019-03-19T13:58:06.229Z,8.28
2019-03-19T14:00:35.959Z,8.38
2019-03-19T14:03:05.902Z,8.03
2019-03-19T14:05:35.729Z,7.62
2019-03-19T14:08:05.460Z,8.25
2019-03-19T14:10:34.350Z,9.23
2019-03-19T14:13:04.106Z,10.23
2019-03-19T14:15:34.050Z,8.53
2019-03-19T14:18:05.113Z,8.70
2019-03-19T14:20:34.919Z,9.80
2019-03-19T14:23:04.766Z,10.88
2019-03-19T14:25:34.585Z,9.10
2019-03-19T14:28:04.180Z,9.58
2019-03-19T14:30:33.756Z,10.07
2019-03-19T14:33:03.384Z,12.80
2019-03-19T14:35:37.653Z,12.18
2019-03-19T14:38:04.683Z,12.35
2019-03-19T14:40:34.406Z,14.98
2019-03-19T14:43:04.038Z,15.63
2019-03-19T14:45:33.860Z,10.48
2019-03-19T14:48:06.256Z,10.98
2019-03-19T14:50:36.206Z,10.68
2019-03-19T14:53:05.917Z,11.28
2019-03-19T14:55:35.557Z,13.03
2019-03-19T14:58:05.683Z,12.47
2019-03-19T15:00:35.613Z,13.80
2019-03-19T15:03:05.555Z,18.98
2019-03-19T15:05:35.690Z,20.68
2019-03-19T15:08:05.465Z,14.85
2019-03-19T15:10:35.363Z,13.75
2019-03-19T15:13:05.266Z,16.27
2019-03-19T15:15:36.711Z,16.48
2019-03-19T15:18:06.617Z,20.27
2019-03-19T15:20:36.435Z,27.13
2019-03-19T15:23:06.162Z,25.82
2019-03-19T15:25:35.993Z,23.30
2019-03-19T15:28:05.721Z,21.27
2019-03-19T15:30:36.788Z,21.62
2019-03-19T15:33:06.618Z,25.68
2019-03-19T15:35:36.217Z,23.05
2019-03-19T15:38:06.178Z,53.68
2019-03-19T15:40:35.909Z,53.65
2019-03-19T15:43:05.637Z,94.58
2019-03-19T15:45:35.581Z,58.40
2019-03-19T15:48:06.946Z,67.37
2019-03-19T15:50:36.773Z,79.77
2019-03-19T15:53:06.610Z,59.35
2019-03-19T15:55:37.575Z,54.25
2019-03-19T15:58:08.968Z,49.53
2019-03-19T16:00:40.527Z,52.53
2019-03-19T16:03:10.308Z,24.20
2019-03-19T16:05:40.157Z,63.33
2019-03-19T16:08:09.995Z,71.40
2019-03-19T16:10:39.849Z,131.90
2019-03-19T16:13:09.685Z,130.87
2019-03-19T16:15:39.391Z,103.12
2019-03-19T16:18:09.042Z,85.57
2019-03-19T16:20:38.769Z,86.90
2019-03-19T16:23:08.693Z,54.98
2019-03-19T16:25:38.806Z,37.45
2019-03-19T16:28:08.564Z,35.30
2019-03-19T16:30:40.442Z,39.78
2019-03-19T16:33:10.267Z,49.58
2019-03-19T16:35:40.005Z,47.60
2019-03-19T16:38:11.593Z,41.15
2019-03-19T16:40:41.516Z,47.50
2019-03-19T16:43:11.595Z,60.20
2019-03-19T16:45:41.374Z,49.63
2019-03-19T16:48:11.529Z,48.90
2019-03-19T16:50:41.342Z,44.63
2019-03-19T16:53:11.077Z,41.77
2019-03-19T16:55:41.262Z,41.90
2019-03-19T16:58:10.953Z,43.68
2019-03-19T17:00:40.881Z,47.47
2019-03-19T17:03:11.576Z,41.92
2019-03-19T17:05:41.681Z,38.98
2019-03-19T17:08:11.602Z,39.63
2019-03-19T17:10:41.841Z,54.15
2019-03-19T17:13:11.700Z,53.60
2019-03-19T17:15:41.618Z,42.08
2019-03-19T17:18:11.453Z,39.95
2019-03-19T17:20:41.189Z,38.73
2019-03-19T17:23:11.116Z,35.50
2019-03-19T17:25:40.771Z,34.43
2019-03-19T17:28:10.463Z,40.87
2019-03-19T17:30:40.103Z,51.47
2019-03-19T17:33:10.263Z,61.53
2019-03-19T17:35:39.956Z,70.00
2019-03-19T17:38:09.695Z,77.13
2019-03-19T17:40:41.926Z,60.17
2019-03-19T17:43:12.096Z,55.83
2019-03-19T17:45:45.077Z,50.33
2019-03-19T17:48:16.395Z,47.13
2019-03-19T17:50:50.787Z,55.35
2019-03-19T17:53:20.460Z,64.05
2019-03-19T17:55:51.752Z,64.53
2019-03-19T17:58:21.548Z,72.60
2019-03-19T18:00:55.271Z,75.83
2019-03-19T18:03:24.992Z,98.50
2019-03-19T18:05:54.616Z,107.37
2019-03-19T18:08:25.681Z,149.13
2019-03-19T18:10:55.549Z,168.22
2019-03-19T18:13:25.256Z,184.45
2019-03-19T18:15:54.976Z,198.07
2019-03-19T18:18:24.717Z,218.13
2019-03-19T18:20:54.352Z,135.03
2019-03-19T18:23:25.991Z,152.05
2019-03-19T18:25:55.741Z,146.28
2019-03-19T18:28:25.472Z,138.17
2019-03-19T18:30:55.303Z,121.53
2019-03-19T18:33:25.134Z,121.42
2019-03-19T18:35:57.032Z,102.72
2019-03-19T18:38:27.970Z,119.55
2019-03-19T18:40:57.924Z,124.82
2019-03-19T18:43:28.282Z,112.88
2019-03-19T18:45:58.095Z,118.20
2019-03-19T18:48:29.055Z,123.13
2019-03-19T18:50:59.084Z,100.30
2019-03-19T18:53:28.700Z,88.47
2019-03-19T18:55:59.519Z,88.57
2019-03-19T18:58:29.299Z,87.95
2019-03-19T19:00:59.128Z,78.28
2019-03-19T19:03:29.766Z,75.20
2019-03-19T19:05:59.316Z,97.27
2019-03-19T19:08:29.039Z,106.80
2019-03-19T19:10:59.894Z,108.55
2019-03-19T19:13:30.736Z,139.05
2019-03-19T19:16:00.327Z,131.27
2019-03-19T19:18:30.102Z,114.83
2019-03-19T19:20:59.728Z,118.93
2019-03-19T19:25:59.356Z,99.05
2019-03-19T19:28:28.806Z,117.60
2019-03-19T19:30:58.489Z,108.03
2019-03-19T19:33:28.271Z,98.22
2019-03-19T19:35:57.938Z,96.08
2019-03-19T19:38:27.843Z,76.73
2019-03-19T19:40:57.490Z,72.20
2019-03-19T19:43:27.206Z,63.03
2019-03-19T19:45:56.916Z,68.12
2019-03-19T19:48:26.962Z,41.68
2019-03-19T19:50:56.789Z,41.40
2019-03-19T19:53:26.359Z,40.63
2019-03-19T19:55:56.046Z,38.57
2019-03-19T19:58:25.610Z,35.80
2019-03-19T20:00:55.237Z,48.10
2019-03-19T20:03:25.054Z,63.28
2019-03-19T20:05:56.309Z,45.65
2019-03-19T20:08:26.054Z,56.00
2019-03-19T20:10:55.654Z,46.60
2019-03-19T20:13:25.388Z,39.55
2019-03-19T20:15:56.750Z,39.48
2019-03-19T20:18:26.588Z,30.77
2019-03-19T20:20:56.523Z,36.08
2019-03-19T20:23:26.351Z,30.32
2019-03-19T20:25:56.292Z,28.32
2019-03-19T20:28:25.909Z,23.05
2019-03-19T20:30:55.642Z,21.97
2019-03-19T20:33:25.358Z,20.08
2019-03-19T20:35:55.882Z,19.42
2019-03-19T20:38:26.874Z,17.77
2019-03-19T20:40:56.636Z,17.32
2019-03-19T20:43:26.353Z,20.70
2019-03-19T20:45:55.973Z,23.67
2019-03-19T20:48:25.694Z,27.27
2019-03-19T20:50:56.355Z,37.80
2019-03-19T20:53:27.828Z,32.33
2019-03-19T20:55:57.551Z,25.70
2019-03-19T20:58:27.281Z,24.40
2019-03-19T21:00:57.108Z,20.95
2019-03-19T21:03:35.591Z,20.48
2019-03-19T21:05:58.317Z,21.10
2019-03-19T21:08:28.251Z,19.07
2019-03-19T21:10:57.975Z,20.25
2019-03-19T21:13:27.628Z,20.33
2019-03-19T21:15:57.344Z,19.90
2019-03-19T21:18:28.426Z,22.90
2019-03-19T21:20:59.058Z,22.62
2019-03-19T21:23:28.672Z,20.97
2019-03-19T21:25:58.411Z,21.60
2019-03-19T21:28:28.129Z,20.23
2019-03-19T21:30:57.761Z,20.05
2019-03-19T21:33:27.599Z,20.93
2019-03-19T21:35:58.971Z,21.68
2019-03-19T21:38:28.689Z,25.17
2019-03-19T21:40:58.444Z,22.13
2019-03-19T21:43:28.049Z,28.52
2019-03-19T21:45:57.683Z,32.70
2019-03-19T21:48:27.507Z,32.63
2019-03-19T21:50:57.233Z,31.52
2019-03-19T21:53:26.998Z,31.68
2019-03-19T21:55:56.598Z,32.03
2019-03-19T21:58:26.325Z,32.40
2019-03-19T22:00:56.059Z,34.78
2019-03-19T22:03:25.792Z,33.53
2019-03-19T22:05:55.418Z,33.58
2019-03-19T22:08:25.135Z,35.30
2019-03-19T22:10:54.778Z,33.28
2019-03-19T22:13:24.504Z,31.03
2019-03-19T22:15:55.249Z,34.15
2019-03-19T22:18:25.022Z,37.08
2019-03-19T22:20:54.722Z,42.07
2019-03-19T22:23:27.413Z,41.15
2019-03-19T22:25:57.250Z,37.15
2019-03-19T22:28:26.819Z,30.48
2019-03-19T22:30:56.500Z,33.17
2019-03-19T22:33:26.230Z,52.63
2019-03-19T22:35:55.924Z,44.25
2019-03-19T22:38:25.585Z,27.97
2019-03-19T22:40:55.422Z,30.05
2019-03-19T22:43:26.043Z,25.08
2019-03-19T22:45:55.914Z,25.30
2019-03-19T22:48:25.639Z,24.45
2019-03-19T22:50:55.256Z,24.45
2019-03-19T22:53:25.100Z,24.47
2019-03-19T22:55:54.729Z,26.60
2019-03-19T22:58:24.454Z,32.67
2019-03-19T23:00:54.500Z,32.03
2019-03-19T23:03:24.129Z,28.87
2019-03-19T23:05:53.856Z,36.47
2019-03-19T23:08:23.489Z,34.83
2019-03-19T23:10:53.314Z,42.57
2019-03-19T23:13:24.684Z,67.12
2019-03-19T23:15:55.937Z,54.53
2019-03-19T23:18:25.461Z,46.85
2019-03-19T23:20:55.201Z,36.50
2019-03-19T23:23:24.824Z,45.83
2019-03-19T23:25:54.664Z,43.65
2019-03-19T23:28:24.383Z,44.88
2019-03-19T23:30:54.014Z,46.45
2019-03-19T23:33:23.641Z,41.60
2019-03-19T23:35:53.370Z,44.98
2019-03-19T23:38:23.713Z,43.23
2019-03-19T23:40:53.349Z,42.03
2019-03-19T23:43:23.289Z,44.85
2019-03-19T23:45:52.903Z,42.00
2019-03-19T23:48:22.740Z,34.77
2019-03-19T23:50:52.365Z,30.27
2019-03-19T23:53:22.303Z,31.95
2019-03-19T23:55:51.928Z,30.20
2019-03-19T23:58:22.895Z,33.38
